createdAt,value
2019-05-05T00:02:09.142Z,2.17
2019-05-05T00:05:09.826Z,2.00
2019-05-05T00:07:40.366Z,2.07
2019-05-05T00:10:15.096Z,1.97
2019-05-05T00:12:54.977Z,2.40
2019-05-05T00:15:44.997Z,1.70
2019-05-05T00:18:16.225Z,1.90
2019-05-05T00:20:45.952Z,1.90
2019-05-05T00:23:16.153Z,1.87
2019-05-05T00:25:47.196Z,2.03
2019-05-05T00:28:16.888Z,2.00
2019-05-05T00:30:47.071Z,1.93
2019-05-05T00:33:17.190Z,2.27
2019-05-05T00:35:47.875Z,2.23
2019-05-05T00:38:18.139Z,2.63
2019-05-05T00:40:48.374Z,2.10
2019-05-05T00:43:18.172Z,2.33
2019-05-05T00:45:49.684Z,2.53
2019-05-05T00:48:29.115Z,2.20
2019-05-05T00:50:59.211Z,1.60
2019-05-05T00:53:29.466Z,2.10
2019-05-05T00:55:59.187Z,2.43
2019-05-05T00:58:32.200Z,2.00
2019-05-05T01:01:27.049Z,1.93
2019-05-05T01:03:57.065Z,2.10
2019-05-05T01:06:28.989Z,2.50
2019-05-05T01:08:58.716Z,2.23
2019-05-05T01:11:29.775Z,2.50
2019-05-05T01:13:59.510Z,2.63
2019-05-05T01:16:29.415Z,2.40
2019-05-05T01:18:59.072Z,2.13
2019-05-05T01:21:29.040Z,2.30
2019-05-05T01:23:59.568Z,2.90
2019-05-05T01:26:29.732Z,2.70
2019-05-05T01:29:00.020Z,2.40
2019-05-05T01:31:30.310Z,2.30
2019-05-05T01:34:12.428Z,2.37
2019-05-05T01:36:42.239Z,2.50
2019-05-05T01:39:38.108Z,2.33
2019-05-05T01:42:17.238Z,2.50
2019-05-05T01:44:47.750Z,2.20
2019-05-05T01:47:17.444Z,2.77
2019-05-05T01:49:47.151Z,2.30
2019-05-05T01:52:17.673Z,2.30
2019-05-05T01:54:47.486Z,2.30
2019-05-05T01:57:18.036Z,2.30
2019-05-05T01:59:48.510Z,2.10
2019-05-05T02:02:18.158Z,2.20
2019-05-05T02:04:47.988Z,2.40
2019-05-05T02:07:17.920Z,2.10
2019-05-05T02:09:47.771Z,2.50
2019-05-05T02:12:17.622Z,2.30
2019-05-05T02:14:47.911Z,2.03
2019-05-05T02:17:17.699Z,2.27
2019-05-05T02:19:48.562Z,2.00
2019-05-05T02:22:18.584Z,2.20
2019-05-05T02:24:49.522Z,2.30
2019-05-05T02:27:19.937Z,2.53
2019-05-05T02:30:06.556Z,2.77
2019-05-05T02:32:45.029Z,2.30
2019-05-05T02:35:17.246Z,1.97
2019-05-05T02:37:47.412Z,2.20
2019-05-05T02:40:18.628Z,2.40
2019-05-05T02:42:49.600Z,2.10
2019-05-05T02:45:48.830Z,2.07
2019-05-05T02:48:20.492Z,2.27
2019-05-05T02:51:02.715Z,2.30
2019-05-05T02:53:44.722Z,2.43
2019-05-05T02:56:23.815Z,2.27
2019-05-05T02:58:57.833Z,1.97
2019-05-05T03:01:40.733Z,2.00
2019-05-05T03:04:11.560Z,3.00
2019-05-05T03:06:44.477Z,2.23
2019-05-05T03:09:16.427Z,1.90
2019-05-05T03:11:48.913Z,1.93
2019-05-05T03:14:20.320Z,2.27
2019-05-05T03:16:51.547Z,2.00
2019-05-05T03:19:24.144Z,2.30
2019-05-05T03:21:55.439Z,1.97
2019-05-05T03:24:25.797Z,2.23
2019-05-05T03:26:55.753Z,1.77
2019-05-05T03:29:26.155Z,2.00
2019-05-05T03:31:57.745Z,1.90
2019-05-05T03:34:28.883Z,2.10
2019-05-05T03:36:59.888Z,2.00
2019-05-05T03:39:34.036Z,1.57
2019-05-05T03:42:24.532Z,2.27
2019-05-05T03:45:08.653Z,1.97
2019-05-05T03:47:39.751Z,1.83
2019-05-05T03:50:09.844Z,1.57
2019-05-05T03:52:39.723Z,1.83
2019-05-05T03:55:10.800Z,2.30
2019-05-05T03:57:40.670Z,2.00
2019-05-05T04:00:10.630Z,1.67
2019-05-05T04:02:53.750Z,1.90
2019-05-05T04:05:48.413Z,1.70
2019-05-05T04:08:19.780Z,1.80
2019-05-05T04:10:50.019Z,1.80
2019-05-05T04:13:24.143Z,1.87
2019-05-05T04:16:13.634Z,1.73
2019-05-05T04:18:50.582Z,1.80
2019-05-05T04:21:31.355Z,1.70
2019-05-05T04:23:53.518Z,1.57
2019-05-05T04:26:23.546Z,1.63
2019-05-05T04:28:54.443Z,1.50
2019-05-05T04:31:24.977Z,1.50
2019-05-05T04:33:54.559Z,1.67
2019-05-05T04:36:25.201Z,2.00
2019-05-05T04:38:54.951Z,1.60
2019-05-05T04:41:24.654Z,1.77
2019-05-05T04:43:54.815Z,1.53
2019-05-05T04:46:24.656Z,1.60
2019-05-05T04:49:05.992Z,1.60
2019-05-05T04:51:49.340Z,1.70
2019-05-05T04:54:20.537Z,1.80
2019-05-05T04:56:54.017Z,1.50
2019-05-05T04:59:24.029Z,1.60
2019-05-05T05:01:56.531Z,1.50
2019-05-05T05:04:48.218Z,1.90
2019-05-05T05:07:19.606Z,1.77
2019-05-05T05:09:49.441Z,1.70
2019-05-05T05:12:19.651Z,1.93
2019-05-05T05:14:49.281Z,1.97
2019-05-05T05:17:24.874Z,2.00
2019-05-05T05:19:56.009Z,2.30
2019-05-05T05:22:25.759Z,2.43
2019-05-05T05:24:56.753Z,2.70
2019-05-05T05:27:26.792Z,2.43
2019-05-05T05:29:56.567Z,2.47
2019-05-05T05:32:26.679Z,2.20
2019-05-05T05:34:56.830Z,1.90
2019-05-05T05:37:27.083Z,2.43
2019-05-05T05:40:16.168Z,2.00
2019-05-05T05:42:45.884Z,2.20
2019-05-05T05:45:35.170Z,2.27
2019-05-05T05:48:19.704Z,2.40
2019-05-05T05:51:04.272Z,2.80
2019-05-05T05:53:34.876Z,2.80
2019-05-05T05:56:06.917Z,3.23
2019-05-05T05:58:37.237Z,3.17
2019-05-05T06:01:06.842Z,3.97
2019-05-05T06:03:36.513Z,3.80
2019-05-05T06:06:06.194Z,3.60
2019-05-05T06:08:36.413Z,3.60
2019-05-05T06:11:06.148Z,4.10
2019-05-05T06:13:35.812Z,4.93
2019-05-05T06:16:05.677Z,4.53
2019-05-05T06:18:35.298Z,5.10
2019-05-05T06:21:04.959Z,4.90
2019-05-05T06:23:34.659Z,4.37
2019-05-05T06:26:06.927Z,4.57
2019-05-05T06:28:38.111Z,4.20
2019-05-05T06:31:07.929Z,3.90
2019-05-05T06:33:37.826Z,4.17
2019-05-05T06:36:07.499Z,4.20
2019-05-05T06:38:37.107Z,4.00
2019-05-05T06:41:18.314Z,4.00
2019-05-05T06:44:06.839Z,3.43
2019-05-05T06:46:54.811Z,3.53
2019-05-05T06:49:24.448Z,3.53
2019-05-05T06:51:54.651Z,3.10
2019-05-05T06:54:24.633Z,3.63
2019-05-05T06:56:54.337Z,3.03
2019-05-05T06:59:24.468Z,3.10
2019-05-05T07:01:54.118Z,3.33
2019-05-05T07:04:24.510Z,2.80
2019-05-05T07:06:57.080Z,2.90
2019-05-05T07:09:25.622Z,2.80
2019-05-05T07:11:55.258Z,3.30
2019-05-05T07:14:25.873Z,2.90
2019-05-05T07:16:55.538Z,3.60
2019-05-05T07:19:25.250Z,3.47
2019-05-05T07:21:55.192Z,3.53
2019-05-05T07:24:24.836Z,3.60
2019-05-05T07:26:54.504Z,4.20
2019-05-05T07:29:24.219Z,3.43
2019-05-05T07:31:54.597Z,3.20
2019-05-05T07:34:26.099Z,3.10
2019-05-05T07:36:55.775Z,3.07
2019-05-05T07:39:25.376Z,3.20
2019-05-05T07:41:55.055Z,2.83
2019-05-05T07:44:29.335Z,3.00
2019-05-05T07:46:56.025Z,2.80
2019-05-05T07:49:25.675Z,3.20
2019-05-05T07:51:55.805Z,2.80
2019-05-05T07:54:25.507Z,2.83
2019-05-05T07:56:55.122Z,2.80
2019-05-05T07:59:24.745Z,2.67
2019-05-05T08:01:54.964Z,2.80
2019-05-05T08:04:25.621Z,2.67
2019-05-05T08:06:55.317Z,2.87
2019-05-05T08:09:25.098Z,2.63
2019-05-05T08:11:54.730Z,2.63
2019-05-05T08:14:24.821Z,2.60
2019-05-05T08:17:31.451Z,2.60
2019-05-05T08:20:05.236Z,2.17
2019-05-05T08:22:34.855Z,2.60
2019-05-05T08:25:36.385Z,2.40
2019-05-05T08:28:29.519Z,2.00
2019-05-05T08:31:07.591Z,2.33
2019-05-05T08:33:37.228Z,2.30
2019-05-05T08:36:06.844Z,1.60
2019-05-05T08:38:36.477Z,2.30
2019-05-05T08:41:06.078Z,2.60
2019-05-05T08:43:35.738Z,2.40
2019-05-05T08:46:05.464Z,2.43
2019-05-05T08:48:35.102Z,2.30
2019-05-05T08:51:05.088Z,1.93
2019-05-05T08:53:42.570Z,2.80
2019-05-05T08:56:06.312Z,2.33
2019-05-05T08:58:35.929Z,2.33
2019-05-05T09:01:05.608Z,2.00
2019-05-05T09:03:35.263Z,2.10
2019-05-05T09:06:04.907Z,2.70
2019-05-05T09:08:34.843Z,2.30
2019-05-05T09:11:04.975Z,2.47
2019-05-05T09:13:34.724Z,4.00
2019-05-05T09:16:04.356Z,2.00
2019-05-05T09:18:35.651Z,2.57
2019-05-05T09:21:05.277Z,1.80
2019-05-05T09:23:36.598Z,2.20
2019-05-05T09:26:24.449Z,2.10
2019-05-05T09:29:13.738Z,1.83
2019-05-05T09:31:45.087Z,1.90
2019-05-05T09:34:14.851Z,1.90
2019-05-05T09:36:44.518Z,2.77
2019-05-05T09:39:14.124Z,2.73
2019-05-05T09:41:44.594Z,2.20
2019-05-05T09:44:14.406Z,2.93
2019-05-05T09:46:44.620Z,2.60
2019-05-05T09:49:14.358Z,2.67
2019-05-05T09:51:44.120Z,2.60
2019-05-05T09:54:16.680Z,3.00
2019-05-05T09:56:45.261Z,2.80
2019-05-05T09:59:14.901Z,2.57
2019-05-05T10:01:44.621Z,2.50
2019-05-05T10:04:15.384Z,2.93
2019-05-05T10:06:47.786Z,2.70
2019-05-05T10:09:16.464Z,3.10
2019-05-05T10:11:46.218Z,3.10
2019-05-05T10:14:15.833Z,2.97
2019-05-05T10:16:45.496Z,3.30
2019-05-05T10:19:15.150Z,3.30
2019-05-05T10:21:44.838Z,3.50
2019-05-05T10:24:31.160Z,3.17
2019-05-05T10:26:59.903Z,3.17
2019-05-05T10:29:29.532Z,3.03
2019-05-05T10:31:59.225Z,3.30
2019-05-05T10:34:28.880Z,2.93
2019-05-05T10:36:58.517Z,3.10
2019-05-05T10:39:33.726Z,3.03
2019-05-05T10:42:04.095Z,2.93
2019-05-05T10:44:34.174Z,3.17
2019-05-05T10:47:04.751Z,3.23
2019-05-05T10:49:34.456Z,2.97
2019-05-05T10:52:04.788Z,2.60
2019-05-05T10:54:44.095Z,3.13
2019-05-05T10:57:05.847Z,3.30
2019-05-05T10:59:35.499Z,3.40
2019-05-05T11:02:05.327Z,3.10
2019-05-05T11:04:34.991Z,2.90
2019-05-05T11:07:04.670Z,3.13
2019-05-05T11:09:34.969Z,3.10
2019-05-05T11:12:04.711Z,3.17
2019-05-05T11:14:34.510Z,2.90
2019-05-05T11:17:04.382Z,3.27
2019-05-05T11:19:34.172Z,2.80
2019-05-05T11:22:03.791Z,3.03
2019-05-05T11:24:34.591Z,2.83
2019-05-05T11:27:04.615Z,2.80
2019-05-05T11:29:35.931Z,2.87
2019-05-05T11:32:10.386Z,2.60
2019-05-05T11:34:40.045Z,2.70
2019-05-05T11:37:12.467Z,2.50
2019-05-05T11:39:42.110Z,2.90
2019-05-05T11:42:12.219Z,2.77
2019-05-05T11:44:41.947Z,2.90
2019-05-05T11:47:11.644Z,2.70
2019-05-05T11:49:41.296Z,3.00
2019-05-05T11:52:10.915Z,3.30
2019-05-05T11:54:40.543Z,3.17
2019-05-05T11:57:10.175Z,3.50
2019-05-05T11:59:39.889Z,3.17
2019-05-05T12:02:09.646Z,2.90
2019-05-05T12:04:39.270Z,3.30
2019-05-05T12:07:08.888Z,3.10
2019-05-05T12:09:54.748Z,2.73
2019-05-05T12:12:23.729Z,3.30
2019-05-05T12:14:55.148Z,3.30
2019-05-05T12:17:37.078Z,3.37
2019-05-05T12:20:07.941Z,3.03
2019-05-05T12:22:37.539Z,2.77
2019-05-05T12:25:28.513Z,3.50
2019-05-05T12:28:05.539Z,2.97
2019-05-05T12:30:35.139Z,3.40
2019-05-05T12:33:04.924Z,2.70
2019-05-05T12:35:35.205Z,3.37
2019-05-05T12:38:05.526Z,3.07
2019-05-05T12:40:35.448Z,3.30
2019-05-05T12:43:05.211Z,3.43
2019-05-05T12:45:36.896Z,3.00
2019-05-05T12:48:18.927Z,2.90
2019-05-05T12:50:49.630Z,3.17
2019-05-05T12:53:19.693Z,3.17
2019-05-05T12:55:49.318Z,3.07
2019-05-05T12:58:18.962Z,3.20
2019-05-05T13:01:00.804Z,3.33
2019-05-05T13:03:30.446Z,3.60
2019-05-05T13:06:01.369Z,2.80
2019-05-05T13:08:31.031Z,3.00
2019-05-05T13:11:00.825Z,2.53
2019-05-05T13:13:31.055Z,3.83
2019-05-05T13:16:01.208Z,3.47
2019-05-05T13:18:33.922Z,8.80
2019-05-05T13:21:13.465Z,5.70
2019-05-05T13:24:05.003Z,2.90
2019-05-05T13:26:42.223Z,2.60
2019-05-05T13:29:13.804Z,2.20
2019-05-05T13:31:44.242Z,2.73
2019-05-05T13:34:14.640Z,2.37
2019-05-05T13:36:44.453Z,2.40
2019-05-05T13:39:15.639Z,2.43
2019-05-05T13:41:45.877Z,2.57
2019-05-05T13:44:24.232Z,2.90
2019-05-05T13:46:54.185Z,2.63
2019-05-05T13:49:37.897Z,2.87
2019-05-05T13:52:07.685Z,2.97
2019-05-05T13:54:41.074Z,2.60
2019-05-05T13:57:11.007Z,2.80
2019-05-05T13:59:41.809Z,2.17
2019-05-05T14:02:13.594Z,3.20
2019-05-05T14:04:43.923Z,3.27
2019-05-05T14:07:14.290Z,3.20
2019-05-05T14:09:44.265Z,3.00
2019-05-05T14:12:14.742Z,3.10
2019-05-05T14:14:44.535Z,3.17
2019-05-05T14:17:15.029Z,2.70
2019-05-05T14:19:45.307Z,2.87
2019-05-05T14:22:15.133Z,2.30
2019-05-05T14:24:53.768Z,3.07
2019-05-05T14:27:24.056Z,3.30
2019-05-05T14:30:20.003Z,3.20
2019-05-05T14:32:50.257Z,3.13
2019-05-05T14:35:27.949Z,2.73
2019-05-05T14:38:01.397Z,3.10
2019-05-05T14:40:31.467Z,2.90
2019-05-05T14:43:01.622Z,2.70
2019-05-05T14:45:31.325Z,2.90
2019-05-05T14:48:03.834Z,2.70
2019-05-05T14:50:34.735Z,2.80
2019-05-05T14:53:06.104Z,2.53
2019-05-05T14:55:36.418Z,2.87
2019-05-05T14:58:06.973Z,2.60
2019-05-05T15:00:39.397Z,2.30
2019-05-05T15:03:08.877Z,2.60
2019-05-05T15:05:44.514Z,2.53
2019-05-05T15:08:24.185Z,2.43
2019-05-05T15:11:23.546Z,2.30
2019-05-05T15:13:54.089Z,2.23
2019-05-05T15:16:24.511Z,2.53
2019-05-05T15:18:55.190Z,2.20
2019-05-05T15:21:25.304Z,2.43
2019-05-05T15:23:55.714Z,2.73
2019-05-05T15:26:25.362Z,2.40
2019-05-05T15:28:59.242Z,2.93
2019-05-05T15:31:28.324Z,2.63
2019-05-05T15:33:58.546Z,2.43
2019-05-05T15:36:41.246Z,2.73
2019-05-05T15:39:13.868Z,2.90
2019-05-05T15:41:44.577Z,2.60
2019-05-05T15:44:14.488Z,3.00
2019-05-05T15:46:44.366Z,2.63
2019-05-05T15:49:14.142Z,2.87
2019-05-05T15:51:44.285Z,3.17
2019-05-05T15:54:14.840Z,2.67
2019-05-05T15:56:44.830Z,2.80
2019-05-05T15:59:14.829Z,2.30
2019-05-05T16:01:44.522Z,2.50
2019-05-05T16:04:14.580Z,2.57
2019-05-05T16:06:44.798Z,2.57
2019-05-05T16:09:14.508Z,2.60
2019-05-05T16:11:46.871Z,2.73
2019-05-05T16:14:16.413Z,2.50
2019-05-05T16:17:11.189Z,2.83
2019-05-05T16:19:55.470Z,3.20
2019-05-05T16:22:31.167Z,3.23
2019-05-05T16:25:14.623Z,2.70
2019-05-05T16:27:46.533Z,2.73
2019-05-05T16:30:18.372Z,2.50
2019-05-05T16:32:48.382Z,2.50
2019-05-05T16:35:20.490Z,2.67
2019-05-05T16:37:50.282Z,2.57
2019-05-05T16:40:23.160Z,2.43
2019-05-05T16:42:54.784Z,2.83
2019-05-05T16:45:24.932Z,2.67
2019-05-05T16:47:55.252Z,2.33
2019-05-05T16:50:25.396Z,2.70
2019-05-05T16:53:05.755Z,2.27
2019-05-05T16:55:50.299Z,2.67
2019-05-05T16:58:19.991Z,2.60
2019-05-05T17:00:49.745Z,2.73
2019-05-05T17:03:20.312Z,2.97
2019-05-05T17:05:50.033Z,2.60
2019-05-05T17:08:20.235Z,2.97
2019-05-05T17:10:50.730Z,2.40
2019-05-05T17:13:39.623Z,2.80
2019-05-05T17:16:28.646Z,2.97
2019-05-05T17:19:26.473Z,2.30
2019-05-05T17:22:18.154Z,2.77
2019-05-05T17:24:47.909Z,2.50
2019-05-05T17:27:18.011Z,2.80
2019-05-05T17:29:48.201Z,2.90
2019-05-05T17:32:18.031Z,2.47
2019-05-05T17:34:47.865Z,2.73
2019-05-05T17:37:18.818Z,2.77
2019-05-05T17:40:11.104Z,3.30
2019-05-05T17:42:59.768Z,2.37
2019-05-05T17:45:47.586Z,2.67
2019-05-05T17:48:36.194Z,2.70
2019-05-05T17:51:15.824Z,2.20
2019-05-05T17:53:55.597Z,2.30
2019-05-05T17:56:26.352Z,5.00
2019-05-05T17:58:55.976Z,4.47
2019-05-05T18:01:25.868Z,2.60
2019-05-05T18:03:55.604Z,2.97
2019-05-05T18:06:48.033Z,2.47
2019-05-05T18:09:45.642Z,2.40
2019-05-05T18:12:34.629Z,3.80
2019-05-05T18:15:04.941Z,1.93
2019-05-05T18:17:35.389Z,2.37
2019-05-05T18:20:06.479Z,2.53
2019-05-05T18:22:36.157Z,2.80
2019-05-05T18:25:06.675Z,2.87
2019-05-05T18:27:38.035Z,3.43
2019-05-05T18:30:08.370Z,3.47
2019-05-05T18:32:39.412Z,3.57
2019-05-05T18:35:09.140Z,6.53
2019-05-05T18:37:39.429Z,2.87
2019-05-05T18:40:10.369Z,3.10
2019-05-05T18:42:41.173Z,3.47
2019-05-05T18:45:12.512Z,3.07
2019-05-05T18:47:43.405Z,3.03
2019-05-05T18:50:14.429Z,3.03
2019-05-05T18:52:46.970Z,3.17
2019-05-05T18:55:17.220Z,3.00
2019-05-05T18:57:46.883Z,4.10
2019-05-05T19:00:24.362Z,3.47
2019-05-05T19:02:58.571Z,2.60
2019-05-05T19:05:49.884Z,3.83
2019-05-05T19:08:29.256Z,3.23
2019-05-05T19:11:00.094Z,2.80
2019-05-05T19:13:29.837Z,2.73
2019-05-05T19:16:03.460Z,3.30
2019-05-05T19:18:34.041Z,3.00
2019-05-05T19:21:27.498Z,3.47
2019-05-05T19:23:57.683Z,4.40
2019-05-05T19:26:27.446Z,3.97
2019-05-05T19:28:57.740Z,4.63
2019-05-05T19:31:28.360Z,3.80
2019-05-05T19:33:58.294Z,4.27
2019-05-05T19:36:29.688Z,4.20
2019-05-05T19:38:59.439Z,3.97
2019-05-05T19:41:30.108Z,4.10
2019-05-05T19:44:01.886Z,3.77
2019-05-05T19:46:38.675Z,3.23
2019-05-05T19:49:20.039Z,3.50
2019-05-05T19:51:53.953Z,3.37
2019-05-05T19:54:22.900Z,3.20
2019-05-05T19:56:54.251Z,3.23
2019-05-05T19:59:24.072Z,2.93
2019-05-05T20:01:54.392Z,3.03
2019-05-05T20:04:24.233Z,3.70
2019-05-05T20:06:54.795Z,3.90
2019-05-05T20:09:25.081Z,3.43
2019-05-05T20:11:56.531Z,3.83
2019-05-05T20:14:26.698Z,4.40
2019-05-05T20:17:23.831Z,4.17
2019-05-05T20:19:54.747Z,4.00
2019-05-05T20:22:24.586Z,5.10
2019-05-05T20:24:54.759Z,7.20
2019-05-05T20:27:25.609Z,9.43
2019-05-05T20:29:56.043Z,10.17
2019-05-05T20:32:40.306Z,6.17
2019-05-05T20:35:19.933Z,4.30
2019-05-05T20:37:54.309Z,3.60
2019-05-05T20:40:27.050Z,3.37
2019-05-05T20:42:56.681Z,3.30
2019-05-05T20:45:28.796Z,4.43
2019-05-05T20:47:58.493Z,3.60
2019-05-05T20:50:29.057Z,4.27
2019-05-05T20:52:59.311Z,4.57
2019-05-05T20:55:29.063Z,4.57
2019-05-05T20:57:59.424Z,2.90
2019-05-05T21:00:31.856Z,3.20
2019-05-05T21:03:01.583Z,3.73
2019-05-05T21:05:31.367Z,3.07
2019-05-05T21:08:04.504Z,3.40
2019-05-05T21:10:34.895Z,2.80
2019-05-05T21:13:04.961Z,2.63
2019-05-05T21:15:37.977Z,2.97
2019-05-05T21:18:08.041Z,2.80
2019-05-05T21:20:37.654Z,3.37
2019-05-05T21:23:14.280Z,2.70
2019-05-05T21:25:46.435Z,2.37
2019-05-05T21:28:16.090Z,3.10
2019-05-05T21:30:45.698Z,2.90
2019-05-05T21:33:15.302Z,3.30
2019-05-05T21:35:44.897Z,3.00
2019-05-05T21:38:14.564Z,3.33
2019-05-05T21:40:44.200Z,3.50
2019-05-05T21:43:15.381Z,2.83
2019-05-05T21:45:45.088Z,3.37
2019-05-05T21:48:14.708Z,3.30
2019-05-05T21:50:50.175Z,3.17
2019-05-05T21:53:29.978Z,3.60
2019-05-05T21:56:18.548Z,2.70
2019-05-05T21:58:48.203Z,3.57
2019-05-05T22:01:19.727Z,3.20
2019-05-05T22:03:49.465Z,3.10
2019-05-05T22:06:19.233Z,3.37
2019-05-05T22:08:48.832Z,3.03
2019-05-05T22:11:18.502Z,3.70
2019-05-05T22:13:48.226Z,4.20
2019-05-05T22:16:17.820Z,3.47
2019-05-05T22:18:47.630Z,3.20
2019-05-05T22:21:36.200Z,3.13
2019-05-05T22:24:16.418Z,3.03
2019-05-05T22:26:46.382Z,3.20
2019-05-05T22:29:16.918Z,3.67
2019-05-05T22:31:47.037Z,3.30
2019-05-05T22:34:16.654Z,3.20
2019-05-05T22:36:46.273Z,3.03
2019-05-05T22:39:17.043Z,3.20
2019-05-05T22:41:47.028Z,3.20
2019-05-05T22:44:16.680Z,3.30
2019-05-05T22:46:46.612Z,3.10
2019-05-05T22:49:16.217Z,3.10
2019-05-05T22:51:45.803Z,3.03
2019-05-05T22:54:15.483Z,3.80
2019-05-05T22:56:45.090Z,3.70
2019-05-05T22:59:14.669Z,3.07
2019-05-05T23:01:44.317Z,3.27
2019-05-05T23:04:29.855Z,3.13
2019-05-05T23:07:03.888Z,3.30
2019-05-05T23:09:33.551Z,3.33
2019-05-05T23:12:04.226Z,3.10
2019-05-05T23:14:34.350Z,3.40
2019-05-05T23:17:22.022Z,3.23
2019-05-05T23:20:10.518Z,3.50
2019-05-05T23:22:48.849Z,3.33
2019-05-05T23:25:35.333Z,3.37
2019-05-05T23:28:44.263Z,3.43
2019-05-05T23:31:27.159Z,3.60
2019-05-05T23:34:18.349Z,3.50
2019-05-05T23:36:53.936Z,3.50
2019-05-05T23:39:41.934Z,3.40
2019-05-05T23:42:25.415Z,3.80
2019-05-05T23:45:24.748Z,3.80
2019-05-05T23:48:14.396Z,3.37
2019-05-05T23:51:24.424Z,3.80
2019-05-05T23:54:21.862Z,3.10
2019-05-05T23:57:13.992Z,3.27
2019-05-05T23:59:58.106Z,3.47
